TimeEDT,TemperatureF,Dew PointF,Humidity,Sea Level PressureIn,VisibilityMPH,Wind Direction,Wind SpeedMPH,Gust SpeedMPH,PrecipitationIn,Events,Conditions,WindDirDegrees,DateUTC
12:53 AM,73.0,54.0,51,30.17,10.0,East,5.8,-,N/A,,Mostly Cloudy,90,2013-03-31 04:53:00
1:53 AM,73.0,55.0,53,30.16,10.0,ESE,6.9,-,N/A,,Mostly Cloudy,110,2013-03-31 05:53:00
2:53 AM,73.0,55.9,55,30.14,10.0,ESE,6.9,-,N/A,,Scattered Clouds,110,2013-03-31 06:53:00
3:53 AM,73.0,57.0,57,30.12,10.0,East,4.6,-,N/A,,Scattered Clouds,100,2013-03-31 07:53:00
4:53 AM,72.0,55.9,57,30.12,10.0,East,3.5,-,N/A,,Scattered Clouds,90,2013-03-31 08:53:00
5:53 AM,73.0,57.9,59,30.12,10.0,ESE,5.8,-,N/A,,Clear,120,2013-03-31 09:53:00
6:53 AM,73.0,57.0,57,30.12,10.0,ESE,5.8,-,N/A,,Clear,110,2013-03-31 10:53:00
7:53 AM,73.0,59.0,61,30.13,10.0,ESE,5.8,-,N/A,,Clear,120,2013-03-31 11:53:00
8:53 AM,75.9,60.1,58,30.14,10.0,ESE,6.9,-,N/A,,Scattered Clouds,110,2013-03-31 12:53:00
9:53 AM,78.1,61.0,56,30.14,10.0,ESE,6.9,-,N/A,,Mostly Cloudy,120,2013-03-31 13:53:00
10:53 AM,80.1,57.9,47,30.15,10.0,SE,6.9,-,N/A,,Clear,130,2013-03-31 14:53:00
11:53 AM,81.0,59.0,47,30.14,10.0,SE,9.2,-,N/A,,Clear,130,2013-03-31 15:53:00
12:53 PM,82.0,60.1,47,30.12,10.0,SE,9.2,16.1,N/A,,Clear,130,2013-03-31 16:53:00
1:53 PM,82.9,62.1,49,30.10,10.0,SE,9.2,17.3,N/A,,Clear,130,2013-03-31 17:53:00
2:53 PM,82.9,63.0,51,30.08,10.0,SE,6.9,-,N/A,,Clear,140,2013-03-31 18:53:00
3:53 PM,82.0,63.0,52,30.06,10.0,SE,8.1,-,N/A,,Clear,130,2013-03-31 19:53:00
4:53 PM,82.0,64.0,54,30.06,10.0,Variable,5.8,-,N/A,,Clear,0,2013-03-31 20:53:00
5:53 PM,80.1,64.0,58,30.05,10.0,ESE,4.6,-,N/A,,Clear,120,2013-03-31 21:53:00
6:53 PM,78.1,64.9,64,30.04,10.0,ESE,5.8,-,N/A,,Clear,110,2013-03-31 22:53:00
7:53 PM,77.0,64.9,66,30.04,10.0,ESE,4.6,-,N/A,,Clear,110,2013-03-31 23:53:00
8:53 PM,77.0,66.9,71,30.05,10.0,ESE,5.8,-,N/A,,Clear,120,2013-04-01 00:53:00
9:53 PM,77.0,66.9,71,30.06,10.0,SE,6.9,-,N/A,,Clear,130,2013-04-01 01:53:00
10:53 PM,77.0,68.0,74,30.07,10.0,SE,6.9,-,N/A,,Clear,140,2013-04-01 02:53:00
11:53 PM,77.0,68.0,74,30.07,10.0,SE,5.8,-,N/A,,Partly Cloudy,140,2013-04-01 03:53:00